PDX weather

Portland International Airport
Portland, Oregon, United States

Public forecast

Using degrees Fahrenheit for public forecast. Weather courtesy of forecast.io.

METAR (pilot weather report)

Retrieved 2019/03/20 22:53 UTC (9 minutes ago):

KPDX 202253Z 10016KT 10SM SCT250 22/01 A2982 RMK AO2 SLP098 T02220006

TAF (pilot weather forecast)

Retrieved 2019/03/20 18:36 UTC (4 hours ago):

TAF KPDX 201734Z 2018/2118 10015G24KT P6SM BKN250 FM210000 12012KT P6SM BKN200 FM210300 15007KT P6SM BKN120 FM210700 VRB03KT P6SM BKN060 FM211400 15004KT P6SM SCT025 OVC040